Time;durP1;ratioP1;P1;durP2;ratioP2;P2;SDS_P1;SDS_P2;PMS_P1;PMS_P2;Temp;Humidity;BMP_temperature;BMP_pressure;BME280_temperature;BME280_humidity;BME280_pressure;Samples;Min_cycle;Max_cycle;Signal;HPM_P1;HPM_P2
2023/03/28 00:01:25;;;;;;;;;16.00;15.33;;;;;7.77;83.20;102300.97;5078323;27;45458;-77
2023/03/28 00:03:51;;;;;;;;;18.33;17.00;;;;;7.66;84.30;102283.25;5062598;28;49360;-77
2023/03/28 00:06:17;;;;;;;;;16.67;15.67;;;;;7.57;84.58;102297.16;5079521;27;45318;-77
2023/03/28 00:08:44;;;;;;;;;16.00;13.67;;;;;7.51;85.33;102293.19;5079446;27;45321;-77
2023/03/28 00:11:20;;;;;;;;;15.33;14.33;;;;;7.55;85.75;102293.81;5079506;27;45259;-77
2023/03/28 00:13:59;;;;;;;;;5.33;5.33;;;;;7.61;85.09;102303.94;5078814;27;45302;-77
2023/03/28 00:16:32;;;;;;;;;9.33;9.33;;;;;7.56;85.42;102291.03;5077791;28;45385;-76
2023/03/28 00:19:04;;;;;;;;;9.67;9.00;;;;;7.55;84.46;102293.81;5079429;27;45409;-77
2023/03/28 00:21:36;;;;;;;;;10.00;9.33;;;;;7.74;83.45;102309.13;5078980;27;45399;-77
2023/03/28 00:24:04;;;;;;;;;8.33;8.00;;;;;7.50;84.08;102307.38;5079253;27;46219;-77
2023/03/28 00:26:33;;;;;;;;;8.33;8.00;;;;;7.42;83.71;102300.00;5077577;28;45307;-77
2023/03/28 00:29:01;;;;;;;;;8.33;8.33;;;;;7.40;83.22;102301.94;5074432;27;45335;-77
2023/03/28 00:31:28;;;;;;;;;11.00;11.00;;;;;7.49;84.46;102318.06;5058629;28;45467;-77
2023/03/28 00:33:55;;;;;;;;;7.00;7.00;;;;;7.42;83.00;102312.38;5058852;28;45394;-76
2023/03/28 00:36:22;;;;;;;;;7.67;7.67;;;;;7.36;83.31;102310.22;5057561;28;45496;-77
2023/03/28 00:38:56;;;;;;;;;12.67;11.00;;;;;7.40;83.02;102309.88;5058953;28;45269;-77
2023/03/28 00:41:24;;;;;;;;;9.33;9.33;;;;;7.41;83.27;102306.28;5057426;28;45262;-76
2023/03/28 00:43:52;;;;;;;;;10.67;9.33;;;;;7.48;82.77;102316.41;5079181;27;48162;-77
2023/03/28 00:46:23;;;;;;;;;10.67;10.33;;;;;7.42;81.74;102313.22;5081152;28;45358;-77
2023/03/28 00:48:53;;;;;;;;;14.75;14.75;;;;;7.44;82.34;102308.69;5081646;28;45207;-77
2023/03/28 00:51:24;;;;;;;;;16.00;16.00;;;;;7.41;82.91;102300.97;5081590;27;45429;-77
2023/03/28 00:53:51;;;;;;;;;15.75;14.75;;;;;7.43;83.40;102309.63;5082737;27;46057;-77
2023/03/28 00:56:22;;;;;;;;;18.50;18.50;;;;;7.39;82.97;102315.28;5082301;27;45390;-77
2023/03/28 00:58:50;;;;;;;;;16.33;13.33;;;;;7.35;83.56;102309.38;5082790;27;45278;-77
2023/03/28 01:01:18;;;;;;;;;13.50;13.50;;;;;7.28;83.60;102298.38;5081855;27;45504;-77
2023/03/28 01:03:51;;;;;;;;;16.75;16.75;;;;;7.34;83.47;102307.69;5082156;27;45488;-77
2023/03/28 01:06:21;;;;;;;;;15.67;14.00;;;;;7.33;83.86;102301.53;5080664;27;45296;-77
2023/03/28 01:08:48;;;;;;;;;11.33;10.33;;;;;7.32;84.15;102299.88;5082617;27;45361;-77
2023/03/28 01:11:14;;;;;;;;;10.00;9.33;;;;;7.39;84.04;102307.34;5080856;28;46068;-77
2023/03/28 01:13:44;;;;;;;;;13.00;10.00;;;;;7.41;84.16;102308.91;5082058;27;45358;-76
2023/03/28 01:16:12;;;;;;;;;13.50;12.50;;;;;7.40;83.35;102312.53;5085192;27;45723;-77
2023/03/28 01:18:40;;;;;;;;;12.00;10.33;;;;;7.39;84.42;102302.88;5079425;27;45333;-76
2023/03/28 01:21:14;;;;;;;;;9.00;7.33;;;;;7.28;83.90;102303.66;5066855;28;45396;-76
2023/03/28 01:23:58;;;;;;;;;9.67;9.00;;;;;7.24;83.87;102302.22;5081757;27;46367;-77
2023/03/28 01:26:42;;;;;;;;;12.67;10.33;;;;;7.25;84.57;102292.50;5081964;28;45376;-77
2023/03/28 01:29:45;;;;;;;;;9.67;9.33;;;;;7.16;84.46;102289.56;5081876;27;45339;-77
2023/03/28 01:32:50;;;;;;;;;8.67;7.33;;;;;7.15;84.52;102290.53;5080169;28;47077;-77
2023/03/28 01:35:53;;;;;;;;;9.33;9.33;;;;;7.10;84.11;102297.13;5081221;27;45371;-77
2023/03/28 01:38:53;;;;;;;;;9.00;9.00;;;;;7.10;84.25;102292.69;5081722;27;45379;-77
2023/03/28 01:41:35;;;;;;;;;7.00;7.00;;;;;7.13;84.74;102292.47;5081468;28;45431;-76
2023/03/28 01:44:38;;;;;;;;;13.33;9.00;;;;;7.14;84.18;102283.56;5080105;28;45442;-76
2023/03/28 01:47:33;;;;;;;;;7.67;7.67;;;;;7.11;85.14;102282.94;5081002;27;45535;-77
2023/03/28 01:50:16;;;;;;;;;9.00;9.00;;;;;7.09;85.08;102279.56;5077554;28;45411;-77
2023/03/28 01:52:51;;;;;;;;;9.67;9.00;;;;;7.10;85.78;102282.09;5081921;27;45492;-76
2023/03/28 01:55:29;;;;;;;;;9.67;8.00;;;;;7.02;85.23;102268.59;5080705;28;45531;-77
2023/03/28 01:58:00;;;;;;;;;8.00;8.00;;;;;7.03;85.05;102278.19;5080124;28;47072;-77
2023/03/28 02:00:42;;;;;;;;;9.00;9.00;;;;;7.02;85.96;102281.81;5079627;28;45323;-77
2023/03/28 02:03:21;;;;;;;;;14.25;11.00;;;;;7.03;85.43;102273.75;5081094;27;45357;-77
2023/03/28 02:05:49;;;;;;;;;15.00;12.50;;;;;6.98;85.83;102260.06;5081287;27;45620;-77
2023/03/28 02:08:16;;;;;;;;;9.00;9.00;;;;;6.94;86.54;102254.13;5079872;28;45995;-77
2023/03/28 02:10:43;;;;;;;;;12.00;12.00;;;;;6.89;87.27;102234.28;5081146;27;45381;-76
2023/03/28 02:13:20;;;;;;;;;14.33;12.00;;;;;6.77;86.92;102230.75;5080230;28;45512;-77
2023/03/28 02:15:53;;;;;;;;;12.33;12.00;;;;;6.72;87.78;102239.00;5079701;27;46463;-77
2023/03/28 02:18:23;;;;;;;;;13.33;9.33;;;;;6.67;88.56;102238.50;5081265;27;45638;-77
2023/03/28 02:20:54;;;;;;;;;11.67;10.33;;;;;6.66;87.90;102229.75;5080951;27;45373;-77
2023/03/28 02:23:24;;;;;;;;;8.00;8.00;;;;;6.63;87.70;102234.38;5079997;28;45324;-77
2023/03/28 02:25:50;;;;;;;;;7.67;7.67;;;;;6.59;87.46;102231.13;5080920;27;45184;-77
2023/03/28 02:28:18;;;;;;;;;7.33;7.33;;;;;6.57;87.30;102228.59;5081146;27;46152;-77
2023/03/28 02:30:44;;;;;;;;;4.33;4.33;;;;;6.55;86.83;102219.09;5077127;28;45453;-77
2023/03/28 02:33:36;;;;;;;;;4.00;4.00;;;;;6.65;85.45;102212.19;5079551;27;45445;-77
2023/03/28 02:36:15;;;;;;;;;7.33;7.00;;;;;6.69;85.48;102220.75;5080809;27;45297;-77
2023/03/28 02:38:47;;;;;;;;;8.67;7.00;;;;;6.72;85.53;102211.72;5079306;28;47171;-77
2023/03/28 02:41:32;;;;;;;;;7.00;6.33;;;;;6.62;84.39;102199.22;5080915;28;45296;-76
2023/03/28 02:44:13;;;;;;;;;8.67;7.00;;;;;6.70;84.97;102214.47;5079639;28;45253;-77
2023/03/28 02:46:48;;;;;;;;;4.67;4.67;;;;;6.67;85.83;102196.22;5080148;27;45343;-77
2023/03/28 02:49:27;;;;;;;;;4.33;3.67;;;;;6.77;85.52;102220.19;5080611;27;46818;-77
2023/03/28 02:52:13;;;;;;;;;7.00;5.00;;;;;6.73;84.82;102208.16;5080481;27;45225;-77
2023/03/28 02:54:53;;;;;;;;;4.00;4.00;;;;;6.85;84.98;102201.94;5080642;28;45401;-77
2023/03/28 02:57:36;;;;;;;;;8.67;7.67;;;;;6.90;84.06;102191.03;5071850;28;45493;-77
2023/03/28 03:00:11;;;;;;;;;7.00;6.67;;;;;6.90;83.82;102193.69;5064949;28;45307;-77
2023/03/28 03:02:38;;;;;;;;;6.67;6.67;;;;;6.94;83.22;102198.63;5079251;28;45852;-77
2023/03/28 03:05:05;;;;;;;;;6.00;4.00;;;;;6.86;83.51;102184.31;5080019;27;45345;-77
2023/03/28 03:07:31;;;;;;;;;7.33;6.67;;;;;6.79;83.17;102174.19;5079825;27;45232;-77
2023/03/28 03:09:56;;;;;;;;;5.33;5.33;;;;;6.79;83.57;102170.69;5079265;27;47514;-77
2023/03/28 03:12:22;;;;;;;;;5.33;4.00;;;;;6.74;82.61;102167.56;5080290;27;45169;-77
2023/03/28 03:14:49;;;;;;;;;5.67;4.00;;;;;6.72;83.46;102170.31;5080686;27;45311;-77
2023/03/28 03:17:16;;;;;;;;;8.33;5.67;;;;;6.74;83.27;102172.84;5078805;28;45424;-77
2023/03/28 03:19:42;;;;;;;;;6.00;4.00;;;;;6.78;82.58;102176.94;5080379;27;46165;-76
2023/03/28 03:22:08;;;;;;;;;9.00;7.00;;;;;6.76;83.14;102165.66;5079956;28;45452;-77
2023/03/28 03:24:33;;;;;;;;;5.00;5.00;;;;;6.75;83.28;102162.16;5080518;27;45342;-77
2023/03/28 03:26:58;;;;;;;;;6.00;6.00;;;;;6.80;82.94;102165.28;5078831;28;46826;-77
2023/03/28 03:29:24;;;;;;;;;4.33;4.00;;;;;6.81;83.03;102166.13;5072606;27;45848;-77
2023/03/28 03:31:49;;;;;;;;;5.67;4.33;;;;;6.76;82.59;102152.44;5073482;28;45357;-77
2023/03/28 03:34:14;;;;;;;;;6.00;6.00;;;;;6.92;83.47;102165.34;5080330;28;45441;-77
2023/03/28 03:36:41;;;;;;;;;5.00;3.67;;;;;6.94;83.76;102158.13;5079799;28;45254;-77
2023/03/28 03:39:07;;;;;;;;;8.67;7.67;;;;;7.05;83.16;102157.31;5079931;28;45337;-77
2023/03/28 03:41:32;;;;;;;;;6.33;6.33;;;;;7.11;83.21;102159.50;5079758;28;45353;-77
2023/03/28 03:43:57;;;;;;;;;4.00;4.00;;;;;7.23;82.89;102154.22;5079970;27;45342;-77
2023/03/28 03:46:23;;;;;;;;;6.33;6.33;;;;;7.28;82.20;102147.63;5078110;28;45987;-77
2023/03/28 03:48:48;;;;;;;;;7.00;7.00;;;;;7.40;81.55;102150.31;5079716;28;45979;-77
2023/03/28 03:51:13;;;;;;;;;6.00;5.00;;;;;7.37;80.76;102151.41;5079584;28;45272;-76
2023/03/28 03:53:39;;;;;;;;;4.33;4.33;;;;;7.34;80.47;102151.63;5079940;28;45451;-77
2023/03/28 03:56:05;;;;;;;;;5.33;5.33;;;;;7.30;81.04;102131.63;5078366;28;46038;-77
2023/03/28 03:58:31;;;;;;;;;5.67;5.67;;;;;7.29;81.42;102137.91;5079062;27;47443;-77
2023/03/28 04:00:57;;;;;;;;;3.00;3.00;;;;;7.40;81.74;102145.88;5079664;27;45259;-77
2023/03/28 04:03:24;;;;;;;;;3.33;3.33;;;;;7.37;81.11;102147.91;5079501;27;45480;-77
2023/03/28 04:05:51;;;;;;;;;5.33;5.00;;;;;7.35;80.03;102141.88;5079400;27;45246;-77
2023/03/28 04:08:17;;;;;;;;;6.33;5.00;;;;;7.38;79.98;102150.41;5079462;27;46198;-77
2023/03/28 04:10:42;;;;;;;;;4.33;4.00;;;;;7.33;80.41;102136.69;5079492;28;45365;-77
2023/03/28 04:13:07;;;;;;;;;9.00;6.67;;;;;7.39;80.77;102146.81;5078056;27;45475;-77
2023/03/28 04:15:33;;;;;;;;;3.00;3.00;;;;;7.36;80.35;102146.22;5079215;27;45334;-77
2023/03/28 04:17:58;;;;;;;;;4.00;3.67;;;;;7.38;80.21;102147.78;5077602;28;48098;-77
2023/03/28 04:20:24;;;;;;;;;7.67;6.67;;;;;7.32;79.85;102142.97;5079356;28;45322;-76
2023/03/28 04:22:50;;;;;;;;;4.00;3.00;;;;;7.30;80.62;102136.94;5079575;28;45349;-77
2023/03/28 04:25:16;;;;;;;;;5.33;2.67;;;;;7.26;80.60;102127.56;5079108;27;45272;-77
2023/03/28 04:27:47;;;;;;;;;6.67;4.33;;;;;7.36;80.84;102136.47;5079050;28;45643;-77
2023/03/28 04:30:16;;;;;;;;;5.67;5.33;;;;;7.27;80.36;102130.09;5066182;28;45414;-77
2023/03/28 04:32:42;;;;;;;;;4.33;4.33;;;;;7.36;80.68;102133.00;5066228;28;45402;-76
2023/03/28 04:35:09;;;;;;;;;1.33;1.33;;;;;7.32;80.55;102130.59;5078993;27;45476;-77
2023/03/28 04:37:36;;;;;;;;;7.00;4.00;;;;;7.38;80.94;102117.81;5079193;28;46179;-77
2023/03/28 04:40:10;;;;;;;;;7.00;4.67;;;;;7.45;81.06;102127.81;5078759;27;45336;-77
2023/03/28 04:42:39;;;;;;;;;4.00;4.00;;;;;7.48;80.84;102126.72;5079461;27;45319;-77
2023/03/28 04:45:05;;;;;;;;;7.33;3.67;;;;;7.56;80.74;102126.13;5078679;27;45437;-77
2023/03/28 04:47:31;;;;;;;;;5.00;5.00;;;;;7.60;80.76;102132.03;5078954;27;46414;-76
2023/03/28 04:49:57;;;;;;;;;5.33;5.33;;;;;7.63;80.85;102113.28;5078725;27;45315;-76
2023/03/28 04:52:23;;;;;;;;;5.67;5.67;;;;;7.75;80.23;102130.00;5078990;27;45338;-77
2023/03/28 04:54:48;;;;;;;;;4.00;4.00;;;;;7.73;80.87;102113.38;5078380;27;45317;-76
2023/03/28 04:57:13;;;;;;;;;4.67;4.67;;;;;7.79;80.79;102113.75;5077374;28;47983;-77
2023/03/28 04:59:39;;;;;;;;;7.00;4.33;;;;;7.88;80.85;102122.78;5078856;28;45642;-77
2023/03/28 05:02:04;;;;;;;;;4.00;4.00;;;;;7.87;80.64;102113.13;5077711;28;45447;-77
2023/03/28 05:04:30;;;;;;;;;2.00;2.00;;;;;7.92;80.70;102123.34;5077316;28;45628;-77
2023/03/28 05:06:56;;;;;;;;;3.33;3.33;;;;;7.89;80.66;102120.94;5077553;28;47361;-77
2023/03/28 05:09:22;;;;;;;;;4.00;4.00;;;;;7.88;80.89;102117.47;5078413;27;45474;-78
2023/03/28 05:11:47;;;;;;;;;4.00;4.00;;;;;7.88;80.91;102120.13;5077686;27;45297;-77
2023/03/28 05:14:12;;;;;;;;;4.67;3.00;;;;;8.02;80.32;102134.06;5077374;28;47239;-76
2023/03/28 05:16:38;;;;;;;;;5.00;5.00;;;;;8.01;80.17;102127.06;5078416;27;47047;-77
2023/03/28 05:19:03;;;;;;;;;5.00;4.67;;;;;8.05;79.55;102137.28;5078472;27;45352;-76
2023/03/28 05:21:28;;;;;;;;;7.33;4.00;;;;;8.07;79.71;102131.88;5077166;28;45779;-76
2023/03/28 05:23:54;;;;;;;;;4.00;4.00;;;;;8.09;78.66;102145.84;5077984;27;45530;-77
2023/03/28 05:26:19;;;;;;;;;4.67;4.67;;;;;8.04;78.07;102137.41;5076638;28;48205;-76
2023/03/28 05:28:45;;;;;;;;;1.00;1.00;;;;;8.20;78.99;102147.59;5075072;28;45266;-77
2023/03/28 05:31:11;;;;;;;;;4.00;3.00;;;;;8.31;78.97;102144.94;5066400;28;45408;-77
2023/03/28 05:33:37;;;;;;;;;4.00;4.00;;;;;8.27;78.29;102151.47;5061450;28;45357;-77
2023/03/28 05:36:03;;;;;;;;;4.00;4.00;;;;;8.28;78.71;102152.28;5060851;28;46088;-77
2023/03/28 05:38:30;;;;;;;;;7.00;4.67;;;;;8.26;77.98;102152.41;5061180;28;45256;-77
2023/03/28 05:40:57;;;;;;;;;3.00;3.00;;;;;8.25;78.99;102148.09;5076557;28;45406;-77
2023/03/28 05:43:23;;;;;;;;;4.00;4.00;;;;;8.24;79.32;102145.56;5059627;28;46078;-76
2023/03/28 05:45:48;;;;;;;;;2.33;2.00;;;;;8.24;79.91;102151.72;5061058;28;45485;-76
2023/03/28 05:48:14;;;;;;;;;3.33;3.00;;;;;8.29;80.19;102154.81;5079295;28;45494;-75
2023/03/28 05:50:39;;;;;;;;;3.00;3.00;;;;;8.27;80.66;102145.31;5081721;28;45426;-76
2023/03/28 05:53:05;;;;;;;;;5.00;5.00;;;;;8.31;79.81;102149.41;5080889;28;45504;-75
2023/03/28 05:55:31;;;;;;;;;4.00;4.00;;;;;8.32;80.06;102138.69;5075288;28;45468;-77
2023/03/28 05:57:56;;;;;;;;;9.67;3.00;;;;;8.36;80.18;102141.94;5066537;27;46703;-77
2023/03/28 06:00:22;;;;;;;;;5.00;5.00;;;;;8.34;80.31;102143.84;5073742;28;45438;-77
2023/03/28 06:02:50;;;;;;;;;7.33;6.33;;;;;8.43;80.68;102144.91;5076910;28;46682;-76
2023/03/28 06:05:16;;;;;;;;;6.00;3.00;;;;;8.46;80.68;102145.50;5065338;27;46130;-77
2023/03/28 06:07:42;;;;;;;;;7.00;7.00;;;;;8.51;80.56;102141.63;5073092;28;46403;-77
2023/03/28 06:10:08;;;;;;;;;6.33;5.00;;;;;8.63;80.60;102137.16;5075201;27;45427;-77
2023/03/28 06:12:33;;;;;;;;;4.67;4.67;;;;;8.65;79.57;102135.25;5073850;27;45210;-77
2023/03/28 06:14:58;;;;;;;;;4.67;4.67;;;;;8.60;80.37;102143.56;5076977;27;45466;-77
2023/03/28 06:17:24;;;;;;;;;5.67;5.33;;;;;8.68;79.97;102145.59;5075927;28;49980;-77
2023/03/28 06:19:50;;;;;;;;;5.67;4.00;;;;;8.64;80.19;102139.69;5076569;28;45365;-77
2023/03/28 06:22:15;;;;;;;;;6.33;6.33;;;;;8.68;79.99;102145.59;5077844;27;45532;-77
2023/03/28 06:24:40;;;;;;;;;5.00;4.00;;;;;8.73;79.98;102150.47;5077688;27;46222;-76
2023/03/28 06:27:06;;;;;;;;;4.33;4.33;;;;;8.74;80.42;102157.50;5076989;28;48861;-77
2023/03/28 06:29:31;;;;;;;;;7.00;7.00;;;;;8.77;80.69;102154.59;5074094;28;45536;-77
2023/03/28 06:31:56;;;;;;;;;6.00;5.00;;;;;8.87;80.40;102163.44;5073688;28;45569;-77
2023/03/28 06:34:22;;;;;;;;;6.00;4.00;;;;;8.90;80.24;102165.84;5074916;28;45432;-75
2023/03/28 06:36:47;;;;;;;;;4.00;4.00;;;;;8.92;80.61;102158.59;5076818;28;45423;-76
2023/03/28 06:39:13;;;;;;;;;5.33;5.33;;;;;8.99;80.95;102166.03;5077292;27;45754;-76
2023/03/28 06:41:38;;;;;;;;;5.00;5.00;;;;;9.03;80.83;102168.31;5069849;28;45481;-77
2023/03/28 06:44:04;;;;;;;;;6.00;6.00;;;;;9.03;80.79;102165.66;5066445;28;47007;-77
2023/03/28 06:46:30;;;;;;;;;7.67;7.33;;;;;9.09;81.45;102167.78;5072632;27;45922;-76
2023/03/28 06:48:55;;;;;;;;;4.67;4.67;;;;;9.11;81.42;102157.06;5075596;27;45241;-76
2023/03/28 06:51:20;;;;;;;;;5.33;5.33;;;;;9.14;82.02;102155.94;5076574;28;54238;-76
2023/03/28 06:53:46;;;;;;;;;6.33;5.33;;;;;9.24;81.56;102164.81;5076407;28;48155;-76
2023/03/28 06:56:11;;;;;;;;;5.67;5.67;;;;;9.34;81.73;102181.63;5073116;27;45277;-76
2023/03/28 06:58:38;;;;;;;;;6.00;6.00;;;;;9.47;81.05;102165.50;5076016;28;45458;-77
2023/03/28 07:01:04;;;;;;;;;10.00;9.00;;;;;9.67;81.33;102178.03;5076036;27;45455;-77
2023/03/28 07:03:30;;;;;;;;;13.00;13.00;;;;;9.69;80.38;102153.03;5073764;28;45647;-76
2023/03/28 07:05:56;;;;;;;;;13.67;11.33;;;;;9.87;79.76;102168.31;5074521;28;45357;-76
2023/03/28 07:08:21;;;;;;;;;14.67;13.00;;;;;10.04;79.48;102164.19;5076521;27;45646;-77
2023/03/28 07:10:47;;;;;;;;;8.67;7.67;;;;;9.91;79.20;102150.31;5076168;27;45448;-77
2023/03/28 07:13:12;;;;;;;;;6.67;4.33;;;;;9.94;79.51;102155.34;5076003;27;45521;-77
2023/03/28 07:15:38;;;;;;;;;8.00;6.67;;;;;10.00;79.01;102140.69;5075732;27;45535;-77
2023/03/28 07:18:04;;;;;;;;;9.67;8.00;;;;;10.00;79.19;102128.25;5074994;27;45375;-77
2023/03/28 07:20:30;;;;;;;;;7.33;7.33;;;;;10.14;79.17;102140.28;5075959;27;45510;-77
2023/03/28 07:22:55;;;;;;;;;5.67;4.00;;;;;10.19;78.51;102131.91;5075376;27;45692;-77
2023/03/28 07:25:21;;;;;;;;;5.33;5.00;;;;;10.14;77.82;102112.91;5076157;27;49460;-77
2023/03/28 07:27:46;;;;;;;;;6.67;6.67;;;;;10.18;77.38;102109.81;5074232;28;45454;-77
2023/03/28 07:30:12;;;;;;;;;6.33;6.33;;;;;10.19;77.35;102095.56;5073050;27;45560;-77
2023/03/28 07:32:38;;;;;;;;;9.67;7.33;;;;;10.34;77.12;102101.31;5074255;27;46463;-76
2023/03/28 07:35:05;;;;;;;;;6.00;6.00;;;;;10.39;77.04;102092.94;5075619;27;45584;-77
2023/03/28 07:37:31;;;;;;;;;7.00;6.00;;;;;10.50;76.74;102097.28;5077356;27;45370;-76
2023/03/28 07:39:57;;;;;;;;;6.00;6.00;;;;;10.53;76.70;102097.00;5074111;27;45441;-77
2023/03/28 07:42:22;;;;;;;;;6.00;5.33;;;;;10.60;75.43;102106.09;5076188;27;45988;-78
2023/03/28 07:44:48;;;;;;;;;5.00;5.00;;;;;10.64;75.87;102104.00;5074362;28;45295;-77
2023/03/28 07:47:13;;;;;;;;;8.33;6.00;;;;;10.74;74.62;102109.28;5074968;28;45470;-78
2023/03/28 07:49:39;;;;;;;;;6.67;6.67;;;;;10.73;75.11;102113.78;5076137;28;45785;-78
2023/03/28 07:52:05;;;;;;;;;7.00;6.33;;;;;10.77;73.93;102116.16;5074906;27;45507;-77
2023/03/28 07:54:32;;;;;;;;;9.33;9.33;;;;;10.81;74.20;102118.38;5075864;27;45587;-77
2023/03/28 07:56:58;;;;;;;;;7.00;5.33;;;;;10.84;74.11;102120.75;5075423;27;45222;-77
2023/03/28 07:59:23;;;;;;;;;7.33;7.00;;;;;10.91;73.41;102129.03;5075986;28;45739;-77
2023/03/28 08:01:48;;;;;;;;;7.00;6.00;;;;;11.10;73.65;102125.47;5076178;27;46328;-76
2023/03/28 08:04:14;;;;;;;;;8.67;8.00;;;;;11.11;74.29;102123.66;5076392;27;45305;-79
2023/03/28 08:06:39;;;;;;;;;6.00;6.00;;;;;11.22;74.04;102127.97;5075969;27;45396;-77
2023/03/28 08:09:07;;;;;;;;;7.67;5.67;;;;;11.35;73.48;102138.31;5073988;27;45438;-78
2023/03/28 08:11:33;;;;;;;;;7.33;7.33;;;;;11.48;73.35;102133.50;5073590;28;48092;-77
2023/03/28 08:14:03;;;;;;;;;6.00;5.67;;;;;11.64;71.70;102137.34;5072735;27;45965;-78
2023/03/28 08:16:29;;;;;;;;;6.33;6.33;;;;;11.76;71.11;102130.00;5074110;27;45370;-79
2023/03/28 08:18:55;;;;;;;;;6.00;5.00;;;;;11.79;70.61;102139.53;5091119;27;47353;-78
2023/03/28 08:21:20;;;;;;;;;6.67;6.67;;;;;11.86;69.34;102151.28;5072775;28;46170;-77
2023/03/28 08:23:45;;;;;;;;;6.00;6.00;;;;;11.89;69.26;102139.47;5075313;27;45373;-79
2023/03/28 08:26:11;;;;;;;;;9.00;8.67;;;;;11.99;68.61;102137.59;5075856;27;45422;-76
2023/03/28 08:28:37;;;;;;;;;5.00;5.00;;;;;12.09;69.18;102143.72;5075360;27;46104;-77
2023/03/28 08:31:25;;;;;;;;;5.00;5.00;;;;;12.25;69.11;102140.38;5074970;28;45318;-78
2023/03/28 08:33:52;;;;;;;;;7.00;5.33;;;;;12.33;68.39;102141.50;5072543;28;45450;-77
2023/03/28 08:36:18;;;;;;;;;7.00;6.00;;;;;12.39;68.43;102140.03;5076005;27;45456;-78
2023/03/28 08:38:45;;;;;;;;;3.67;3.67;;;;;12.50;68.25;102142.47;5075479;27;45748;-78
2023/03/28 08:41:41;;;;;;;;;4.00;4.00;;;;;12.53;66.30;102143.97;5075137;27;45395;-77
2023/03/28 08:44:07;;;;;;;;;2.00;2.00;;;;;12.62;65.39;102151.06;5073276;28;45511;-78
2023/03/28 08:46:35;;;;;;;;;4.67;4.67;;;;;12.70;65.29;102134.31;5075340;28;45440;-77
2023/03/28 08:49:06;;;;;;;;;4.00;4.00;;;;;12.73;63.75;102121.50;5073556;28;46860;-77
2023/03/28 08:51:36;;;;;;;;;3.33;3.33;;;;;12.86;64.36;102120.25;5073869;27;45898;-77
2023/03/28 08:54:27;;;;;;;;;3.00;3.00;;;;;13.08;63.20;102134.91;5072602;28;46506;-77
2023/03/28 08:56:55;;;;;;;;;3.33;2.67;;;;;13.15;63.26;102128.94;5074803;28;45355;-77
2023/03/28 08:59:42;;;;;;;;;4.67;4.67;;;;;13.22;61.88;102130.84;5075452;27;45455;-76
2023/03/28 09:02:17;;;;;;;;;4.00;4.00;;;;;13.33;63.49;102116.38;5072763;27;45293;-77
2023/03/28 09:04:43;;;;;;;;;4.00;4.00;;;;;13.36;60.65;102118.75;5076289;28;45888;-77
2023/03/28 09:07:12;;;;;;;;;1.00;1.00;;;;;13.46;60.54;102120.44;5076902;28;45445;-77
2023/03/28 09:09:42;;;;;;;;;2.33;2.33;;;;;13.39;58.06;102101.56;5076761;27;47005;-77
2023/03/28 09:12:33;;;;;;;;;3.00;3.00;;;;;13.50;57.58;102117.31;5078070;28;45452;-77
2023/03/28 09:15:01;;;;;;;;;7.00;5.00;;;;;13.57;56.48;102114.84;5078677;27;45577;-78
2023/03/28 09:17:33;;;;;;;;;5.00;4.00;;;;;13.76;55.21;102108.41;5076552;28;45280;-78
2023/03/28 09:20:12;;;;;;;;;5.00;4.67;;;;;13.74;56.28;102088.22;5078280;27;45505;-79
2023/03/28 09:22:44;;;;;;;;;3.00;3.00;;;;;13.88;54.95;102094.75;5077983;27;46518;-79
2023/03/28 09:25:23;;;;;;;;;4.00;3.00;;;;;13.87;54.61;102101.09;5078121;27;45537;-79
2023/03/28 09:28:00;;;;;;;;;4.00;4.00;;;;;13.95;54.26;102086.91;5075746;28;45244;-77
2023/03/28 09:30:30;;;;;;;;;6.00;3.00;;;;;13.98;54.79;102081.25;5075126;28;45427;-78
2023/03/28 09:33:00;;;;;;;;;3.67;3.67;;;;;14.07;53.75;102074.91;5077835;27;45499;-78
2023/03/28 09:35:29;;;;;;;;;3.00;3.00;;;;;14.22;54.24;102083.09;5075384;28;45751;-77
2023/03/28 09:38:08;;;;;;;;;6.33;5.00;;;;;14.35;53.29;102092.47;5074435;27;45892;-78
2023/03/28 09:40:35;;;;;;;;;5.67;5.67;;;;;14.43;53.94;102084.47;5077509;27;45307;-77
2023/03/28 09:43:26;;;;;;;;;5.33;5.00;;;;;14.56;52.19;102083.13;5077162;27;45421;-77
2023/03/28 09:45:59;;;;;;;;;4.00;4.00;;;;;14.67;52.64;102079.28;5076687;27;46110;-77
2023/03/28 09:48:28;;;;;;;;;4.00;3.67;;;;;14.70;53.09;102073.59;5075969;27;45314;-75
2023/03/28 09:50:56;;;;;;;;;4.33;4.33;;;;;14.69;51.88;102075.41;5074543;27;45564;-77
2023/03/28 09:53:27;;;;;;;;;2.67;2.67;;;;;14.74;51.86;102067.72;5070705;28;45433;-77
2023/03/28 09:55:56;;;;;;;;;6.00;4.33;;;;;14.83;50.63;102070.41;5070350;27;45487;-76
2023/03/28 09:58:21;;;;;;;;;7.00;6.00;;;;;14.93;51.50;102064.88;5069898;28;45665;-76
2023/03/28 10:00:50;;;;;;;;;3.67;3.00;;;;;14.99;51.33;102057.00;5081242;27;45260;-76
2023/03/28 10:03:31;;;;;;;;;6.00;5.00;;;;;15.04;51.10;102055.63;5070781;27;45267;-76
2023/03/28 10:05:59;;;;;;;;;8.00;6.67;;;;;15.11;50.67;102043.22;5068071;28;45330;-76
2023/03/28 10:08:26;;;;;;;;;8.67;8.00;;;;;15.20;50.56;102044.88;5081039;27;45516;-76
2023/03/28 10:11:11;;;;;;;;;8.67;7.67;;;;;15.33;50.83;102035.47;5081009;27;45173;-76
2023/03/28 10:13:39;;;;;;;;;10.00;9.67;;;;;15.35;51.07;102034.25;5079713;27;45313;-78
2023/03/28 10:16:05;;;;;;;;;5.67;5.67;;;;;15.47;50.26;102023.19;5080815;27;45456;-78
2023/03/28 10:18:31;;;;;;;;;6.00;5.00;;;;;15.58;50.80;102022.78;5081140;28;45405;-77
2023/03/28 10:21:04;;;;;;;;;7.67;6.00;;;;;15.63;50.51;102015.03;5079782;27;46358;-78
2023/03/28 10:23:30;;;;;;;;;3.33;3.33;;;;;15.70;48.90;102014.31;5080946;27;46222;-77
2023/03/28 10:26:01;;;;;;;;;2.33;2.33;;;;;15.75;48.40;102014.63;5080907;28;45321;-79
2023/03/28 10:28:34;;;;;;;;;3.00;2.33;;;;;15.86;48.49;102022.25;5079966;28;45331;-77
2023/03/28 10:31:01;;;;;;;;;4.67;4.67;;;;;16.02;48.88;102021.31;5080700;27;45452;-78
2023/03/28 10:33:32;;;;;;;;;4.33;4.33;;;;;16.18;48.62;102022.22;5080665;28;46376;-76
2023/03/28 10:36:05;;;;;;;;;2.33;2.33;;;;;16.31;47.45;102018.09;5080586;27;45479;-81
2023/03/28 10:38:35;;;;;;;;;3.00;2.00;;;;;16.40;48.12;102012.47;5080844;27;45391;-78
2023/03/28 10:41:06;;;;;;;;;2.33;2.33;;;;;16.11;47.48;102005.19;5080354;27;45349;-78
2023/03/28 10:43:35;;;;;;;;;6.00;6.00;;;;;16.30;46.19;102008.34;5079344;28;48079;-77
2023/03/28 10:46:04;;;;;;;;;4.00;3.00;;;;;16.34;46.34;102007.00;5079494;27;45414;-79
2023/03/28 10:48:32;;;;;;;;;5.33;3.67;;;;;16.41;46.67;102010.63;5079435;28;45260;-79
2023/03/28 10:51:07;;;;;;;;;5.00;3.67;;;;;16.33;45.39;102000.78;5070507;27;45408;-79
2023/03/28 10:53:42;;;;;;;;;3.00;3.00;;;;;16.03;46.69;102012.28;5059889;28;45374;-79
2023/03/28 10:56:19;;;;;;;;;3.00;3.00;;;;;16.51;46.99;102004.97;5072571;28;45481;-78
2023/03/28 10:58:54;;;;;;;;;3.67;3.00;;;;;16.55;46.04;102005.47;5080091;27;45339;-77
2023/03/28 11:01:23;;;;;;;;;3.00;3.00;;;;;16.45;45.54;101989.59;5079445;27;45462;-76
2023/03/28 11:04:10;;;;;;;;;3.67;3.33;;;;;16.55;46.55;102000.09;5079814;27;45270;-78
2023/03/28 11:06:50;;;;;;;;;3.67;2.33;;;;;16.56;44.98;101996.38;5079596;27;45264;-79
2023/03/28 11:09:24;;;;;;;;;3.33;3.00;;;;;16.56;46.05;101988.34;5078824;28;45462;-77
2023/03/28 11:12:05;;;;;;;;;4.00;4.00;;;;;16.12;45.90;101991.59;5075790;28;46463;-76
2023/03/28 11:14:39;;;;;;;;;3.67;3.67;;;;;16.43;46.44;101997.84;5079379;28;45296;-76
2023/03/28 11:17:23;;;;;;;;;2.33;2.33;;;;;16.47;46.31;101996.47;5079826;27;45355;-77
2023/03/28 11:20:27;;;;;;;;;4.00;4.00;;;;;16.37;45.33;101991.34;5073709;28;45207;-76
2023/03/28 11:23:15;;;;;;;;;4.67;4.00;;;;;16.41;45.85;101989.16;5077309;27;45416;-76
2023/03/28 11:25:40;;;;;;;;;3.00;3.00;;;;;16.40;46.30;101977.59;5053244;27;46448;-78
2023/03/28 11:28:22;;;;;;;;;2.67;2.67;;;;;16.34;46.58;101958.72;5074844;28;45491;-78
2023/03/28 11:30:53;;;;;;;;;5.00;3.00;;;;;16.45;46.81;101969.00;5075907;27;45344;-78
2023/03/28 11:33:35;;;;;;;;;3.00;3.00;;;;;16.53;46.88;101960.03;5073373;27;45502;-78
2023/03/28 11:36:09;;;;;;;;;5.33;5.33;;;;;16.49;46.81;101945.31;5072902;28;48051;-77
2023/03/28 11:38:40;;;;;;;;;4.00;4.00;;;;;16.59;46.76;101953.91;5076119;27;45435;-76
2023/03/28 11:41:17;;;;;;;;;5.67;5.00;;;;;16.18;46.94;101951.63;5076501;27;45586;-77
2023/03/28 11:43:59;;;;;;;;;3.00;3.00;;;;;16.18;46.89;101959.69;5072139;28;47575;-78